createdAt,value
2023-03-22T00:01:24.294Z,5.47
2023-03-22T00:03:52.525Z,6.07
2023-03-22T00:06:19.385Z,6.10
2023-03-22T00:08:50.645Z,6.37
2023-03-22T00:11:17.865Z,6.67
2023-03-22T00:13:46.938Z,6.47
2023-03-22T00:16:15.189Z,6.63
2023-03-22T00:18:41.889Z,7.30
2023-03-22T00:21:13.443Z,7.07
2023-03-22T00:23:40.452Z,7.40
2023-03-22T00:26:08.816Z,7.33
2023-03-22T00:28:36.870Z,7.33
2023-03-22T00:31:04.829Z,7.13
2023-03-22T00:33:33.146Z,7.63
2023-03-22T00:36:02.848Z,6.70
2023-03-22T00:38:42.398Z,6.83
2023-03-22T00:41:13.351Z,7.40
2023-03-22T00:43:40.373Z,7.90
2023-03-22T00:46:07.970Z,7.60
2023-03-22T00:48:34.821Z,7.17
2023-03-22T00:51:01.699Z,7.93
2023-03-22T00:53:30.471Z,8.00
2023-03-22T00:55:57.384Z,7.63
2023-03-22T00:58:24.568Z,7.77
2023-03-22T01:00:51.409Z,7.57
2023-03-22T01:03:21.969Z,7.33
2023-03-22T01:05:49.485Z,7.97
2023-03-22T01:08:16.736Z,7.70
2023-03-22T01:10:44.929Z,8.30
2023-03-22T01:13:12.678Z,7.80
2023-03-22T01:15:39.680Z,8.03
2023-03-22T01:18:07.575Z,8.00
2023-03-22T01:20:34.978Z,8.07
2023-03-22T01:23:02.054Z,7.57
2023-03-22T01:25:28.931Z,8.47
2023-03-22T01:27:55.526Z,8.30
2023-03-22T01:30:22.251Z,7.87
2023-03-22T01:32:48.943Z,7.50
2023-03-22T01:35:17.017Z,7.57
2023-03-22T01:37:43.984Z,7.93
2023-03-22T01:40:14.010Z,7.67
2023-03-22T01:42:40.882Z,7.67
2023-03-22T01:45:16.680Z,7.30
2023-03-22T01:48:10.300Z,7.10
2023-03-22T01:50:40.020Z,6.57
2023-03-22T01:53:10.360Z,7.10
2023-03-22T01:55:38.019Z,6.73
2023-03-22T01:58:18.123Z,6.70
2023-03-22T02:00:56.474Z,6.33
2023-03-22T02:03:47.110Z,6.03
2023-03-22T02:06:14.129Z,5.97
2023-03-22T02:08:40.813Z,6.37
2023-03-22T02:11:16.310Z,6.20
2023-03-22T02:14:09.214Z,5.80
2023-03-22T02:17:51.405Z,5.97
2023-03-22T02:20:53.089Z,5.93
2023-03-22T02:23:42.669Z,5.97
2023-03-22T02:26:21.179Z,5.53
2023-03-22T02:29:12.666Z,4.80
2023-03-22T02:31:58.811Z,5.70
2023-03-22T02:34:40.655Z,5.83
2023-03-22T02:37:38.418Z,6.50
2023-03-22T02:40:14.133Z,5.27
2023-03-22T02:42:43.567Z,5.80
2023-03-22T02:45:20.202Z,5.47
2023-03-22T02:47:50.045Z,6.63
2023-03-22T02:50:54.913Z,6.40
2023-03-22T02:53:24.395Z,6.07
2023-03-22T02:56:08.233Z,6.00
2023-03-22T02:58:45.808Z,5.73
2023-03-22T03:01:24.484Z,5.20
2023-03-22T03:03:55.299Z,5.70
2023-03-22T03:06:25.716Z,6.27
2023-03-22T03:08:54.152Z,5.97
2023-03-22T03:11:21.408Z,6.60
2023-03-22T03:13:50.392Z,6.40
2023-03-22T03:16:21.651Z,6.40
2023-03-22T03:19:08.793Z,5.30
2023-03-22T03:21:47.577Z,5.83
2023-03-22T03:24:39.013Z,5.50
2023-03-22T03:27:23.112Z,5.67
2023-03-22T03:30:00.867Z,5.40
2023-03-22T03:32:47.960Z,5.80
2023-03-22T03:35:22.981Z,5.20
2023-03-22T03:37:54.293Z,5.17
2023-03-22T03:40:27.352Z,4.97
2023-03-22T03:42:56.515Z,5.70
2023-03-22T03:45:25.075Z,5.57
2023-03-22T03:47:58.163Z,5.33
2023-03-22T03:50:26.572Z,4.67
2023-03-22T03:52:55.620Z,5.00
2023-03-22T03:55:23.197Z,5.20
2023-03-22T03:57:50.241Z,5.47
2023-03-22T04:00:17.688Z,4.70
2023-03-22T04:03:21.773Z,5.17
2023-03-22T04:06:22.426Z,4.90
2023-03-22T04:08:56.694Z,5.43
2023-03-22T04:11:27.701Z,5.40
2023-03-22T04:13:58.630Z,5.37
2023-03-22T04:16:25.298Z,4.80
2023-03-22T04:18:53.377Z,5.50
2023-03-22T04:21:21.662Z,5.63
2023-03-22T04:23:59.646Z,5.43
2023-03-22T04:26:29.281Z,6.00
2023-03-22T04:29:13.519Z,5.43
2023-03-22T04:31:44.595Z,5.93
2023-03-22T04:34:21.551Z,5.77
2023-03-22T04:36:55.034Z,6.07
2023-03-22T04:39:29.510Z,5.60
2023-03-22T04:42:16.183Z,5.73
2023-03-22T04:44:43.535Z,6.87
2023-03-22T04:47:10.405Z,6.23
2023-03-22T04:49:37.378Z,6.80
2023-03-22T04:52:04.035Z,8.07
2023-03-22T04:54:34.730Z,7.90
2023-03-22T04:57:02.150Z,7.73
2023-03-22T04:59:33.384Z,7.23
2023-03-22T05:02:00.148Z,6.70
2023-03-22T05:04:31.961Z,7.07
2023-03-22T05:07:04.626Z,7.23
2023-03-22T05:09:42.012Z,7.90
2023-03-22T05:12:08.981Z,9.00
2023-03-22T05:14:44.828Z,8.47
2023-03-22T05:17:13.341Z,7.50
2023-03-22T05:19:40.596Z,8.33
2023-03-22T05:22:07.191Z,8.80
2023-03-22T05:24:42.685Z,8.40
2023-03-22T05:27:14.296Z,6.73
2023-03-22T05:29:45.140Z,6.23
2023-03-22T05:32:25.557Z,6.23
2023-03-22T05:34:53.931Z,6.23
2023-03-22T05:37:27.726Z,6.67
2023-03-22T05:39:56.117Z,6.07
2023-03-22T05:42:31.113Z,5.83
2023-03-22T05:44:58.742Z,5.90
2023-03-22T05:47:25.316Z,5.73
2023-03-22T05:49:58.305Z,6.67
2023-03-22T05:52:26.315Z,8.20
2023-03-22T05:55:19.715Z,6.33
2023-03-22T05:57:47.767Z,6.60
2023-03-22T06:00:16.325Z,6.57
2023-03-22T06:03:16.893Z,5.80
2023-03-22T06:05:50.683Z,6.50
2023-03-22T06:08:19.687Z,6.70
2023-03-22T06:10:49.594Z,6.73
2023-03-22T06:13:16.357Z,6.37
2023-03-22T06:15:42.958Z,6.30
2023-03-22T06:18:13.905Z,6.30
2023-03-22T06:20:44.473Z,6.83
2023-03-22T06:23:18.425Z,5.97
2023-03-22T06:25:46.840Z,6.40
2023-03-22T06:28:14.461Z,6.63
2023-03-22T06:30:48.728Z,6.23
2023-03-22T06:33:27.839Z,6.10
2023-03-22T06:36:01.946Z,7.10
2023-03-22T06:38:38.507Z,6.80
2023-03-22T06:41:05.357Z,6.80
2023-03-22T06:43:32.028Z,6.57
2023-03-22T06:46:10.898Z,5.75
2023-03-22T06:48:45.457Z,5.83
2023-03-22T06:51:15.033Z,5.45
2023-03-22T06:53:42.401Z,5.80
2023-03-22T06:56:09.936Z,5.38
2023-03-22T06:58:47.586Z,5.65
2023-03-22T07:01:14.224Z,5.40
2023-03-22T07:03:40.981Z,5.80
2023-03-22T07:06:12.365Z,5.47
2023-03-22T07:08:42.680Z,5.60
2023-03-22T07:11:10.944Z,5.78
2023-03-22T07:13:37.910Z,6.35
2023-03-22T07:16:10.383Z,6.00
2023-03-22T07:18:40.609Z,5.82
2023-03-22T07:21:07.655Z,4.70
2023-03-22T07:23:36.312Z,5.57
2023-03-22T07:26:08.810Z,5.05
2023-03-22T07:28:39.237Z,4.93
2023-03-22T07:31:11.564Z,4.40
2023-03-22T07:33:48.225Z,4.93
2023-03-22T07:36:15.574Z,4.97
2023-03-22T07:38:42.430Z,4.63
2023-03-22T07:41:15.431Z,4.05
2023-03-22T07:44:17.338Z,3.88
2023-03-22T07:46:56.268Z,2.90
2023-03-22T07:49:28.674Z,2.40
2023-03-22T07:52:03.868Z,1.90
2023-03-22T07:54:34.162Z,1.80
2023-03-22T07:57:03.057Z,2.05
2023-03-22T07:59:32.050Z,1.75
2023-03-22T08:01:59.268Z,1.70
2023-03-22T08:04:39.453Z,1.67
2023-03-22T08:07:19.833Z,1.50
2023-03-22T08:09:47.726Z,1.60
2023-03-22T08:12:14.650Z,1.27
2023-03-22T08:14:42.735Z,1.30
2023-03-22T08:17:17.506Z,1.35
2023-03-22T08:19:44.358Z,1.60
2023-03-22T08:22:15.479Z,1.20
2023-03-22T08:25:01.291Z,1.05
2023-03-22T08:27:31.886Z,1.20
2023-03-22T08:30:00.813Z,1.50
2023-03-22T08:32:27.587Z,1.23
2023-03-22T08:34:54.173Z,1.20
2023-03-22T08:37:20.849Z,1.02
2023-03-22T08:39:48.359Z,1.30
2023-03-22T08:42:25.562Z,1.13
2023-03-22T08:44:52.534Z,1.30
2023-03-22T08:47:21.266Z,0.93
2023-03-22T08:49:51.867Z,0.90
2023-03-22T08:52:27.900Z,1.02
2023-03-22T08:55:08.468Z,1.00
2023-03-22T08:58:07.550Z,1.00
2023-03-22T09:00:54.909Z,1.15
2023-03-22T09:03:30.954Z,0.98
2023-03-22T09:05:58.036Z,1.13
2023-03-22T09:08:27.238Z,1.00
2023-03-22T09:11:00.936Z,0.65
2023-03-22T09:13:31.049Z,0.80
2023-03-22T09:16:00.916Z,1.00
2023-03-22T09:18:31.006Z,0.60
2023-03-22T09:21:01.021Z,0.70
2023-03-22T09:23:36.216Z,0.95
2023-03-22T09:26:07.905Z,1.25
2023-03-22T09:28:36.249Z,0.80
2023-03-22T09:31:08.343Z,0.77
2023-03-22T09:33:36.420Z,0.93
2023-03-22T09:36:03.846Z,0.90
2023-03-22T09:38:35.731Z,0.75
2023-03-22T09:41:07.097Z,1.15
2023-03-22T09:43:39.865Z,0.80
2023-03-22T09:46:20.495Z,0.98
2023-03-22T09:48:49.466Z,1.10
2023-03-22T09:51:44.341Z,0.90
2023-03-22T09:54:19.456Z,1.15
2023-03-22T09:56:56.354Z,1.13
2023-03-22T09:59:40.065Z,1.02
2023-03-22T10:02:41.666Z,1.15
2023-03-22T10:05:39.643Z,0.93
2023-03-22T10:08:29.609Z,1.25
2023-03-22T10:10:57.809Z,1.30
2023-03-22T10:13:45.257Z,1.00
2023-03-22T10:16:20.693Z,1.10
2023-03-22T10:18:52.146Z,1.02
2023-03-22T10:21:19.893Z,1.30
2023-03-22T10:23:57.816Z,1.70
2023-03-22T10:26:38.161Z,1.20
2023-03-22T10:29:15.249Z,1.10
2023-03-22T10:31:43.808Z,1.20
2023-03-22T10:34:22.513Z,1.20
2023-03-22T10:36:52.553Z,1.48
2023-03-22T10:39:39.692Z,1.00
2023-03-22T10:42:14.067Z,1.38
2023-03-22T10:45:13.531Z,1.20
2023-03-22T10:47:47.259Z,1.20
2023-03-22T10:50:22.572Z,1.13
2023-03-22T10:52:57.297Z,1.00
2023-03-22T10:55:24.774Z,1.33
2023-03-22T10:58:21.779Z,1.17
2023-03-22T11:00:50.464Z,1.40
2023-03-22T11:03:38.619Z,1.08
2023-03-22T11:06:10.771Z,0.90
2023-03-22T11:08:49.742Z,1.10
2023-03-22T11:11:35.902Z,1.17
2023-03-22T11:14:14.454Z,1.65
2023-03-22T11:16:56.209Z,1.50
2023-03-22T11:19:27.251Z,1.20
2023-03-22T11:21:59.175Z,1.15
2023-03-22T11:24:27.262Z,1.10
2023-03-22T11:27:18.310Z,1.63
2023-03-22T11:29:51.464Z,1.20
2023-03-22T11:32:26.330Z,1.17
2023-03-22T11:35:00.876Z,1.20
2023-03-22T11:37:28.153Z,1.27
2023-03-22T11:40:01.595Z,1.20
2023-03-22T11:42:28.677Z,1.30
2023-03-22T11:44:56.888Z,1.15
2023-03-22T11:47:26.173Z,1.27
2023-03-22T11:49:56.490Z,1.30
2023-03-22T11:52:27.723Z,1.55
2023-03-22T11:54:55.987Z,1.20
2023-03-22T11:57:31.545Z,1.48
2023-03-22T12:00:11.386Z,1.27
2023-03-22T12:02:46.351Z,1.40
2023-03-22T12:05:27.520Z,1.10
2023-03-22T12:08:12.139Z,1.38
2023-03-22T12:10:41.434Z,1.23
2023-03-22T12:13:15.925Z,0.90
2023-03-22T12:15:48.619Z,1.00
2023-03-22T12:18:19.977Z,1.23
2023-03-22T12:20:54.625Z,1.73
2023-03-22T12:23:24.507Z,1.10
2023-03-22T12:25:57.532Z,1.15
2023-03-22T12:28:32.518Z,1.50
2023-03-22T12:31:00.942Z,1.20
2023-03-22T12:33:27.948Z,1.00
2023-03-22T12:36:00.627Z,0.95
2023-03-22T12:38:30.347Z,1.30
2023-03-22T12:41:02.278Z,1.10
2023-03-22T12:43:55.739Z,1.10
2023-03-22T12:46:29.694Z,1.33
2023-03-22T12:49:16.251Z,1.27
2023-03-22T12:51:44.024Z,1.17
2023-03-22T12:54:13.029Z,0.98
2023-03-22T12:56:45.740Z,1.00
2023-03-22T12:59:29.146Z,1.20
2023-03-22T13:02:24.793Z,1.30
2023-03-22T13:05:06.958Z,1.17
2023-03-22T13:07:50.019Z,1.40
2023-03-22T13:10:32.482Z,1.00
2023-03-22T13:13:19.396Z,0.90
2023-03-22T13:16:00.350Z,1.27
2023-03-22T13:18:35.793Z,1.17
2023-03-22T13:21:19.240Z,1.25
2023-03-22T13:24:08.779Z,1.52
2023-03-22T13:26:46.006Z,1.50
2023-03-22T13:29:19.220Z,1.98
2023-03-22T13:31:51.768Z,1.20
2023-03-22T13:34:36.214Z,1.48
2023-03-22T13:37:05.240Z,1.30
2023-03-22T13:39:34.677Z,1.30
2023-03-22T13:42:07.740Z,1.25
2023-03-22T13:44:40.548Z,1.10
2023-03-22T13:47:38.506Z,1.40
2023-03-22T13:50:22.553Z,1.52
2023-03-22T13:52:58.833Z,1.38
2023-03-22T13:55:58.200Z,1.10
2023-03-22T13:58:48.473Z,1.13
2023-03-22T14:01:35.142Z,1.50
2023-03-22T14:04:09.511Z,1.08
2023-03-22T14:06:47.548Z,0.90
2023-03-22T14:09:25.211Z,1.52
2023-03-22T14:12:18.039Z,1.20
2023-03-22T14:14:48.918Z,1.35
2023-03-22T14:17:36.997Z,1.30
2023-03-22T14:20:10.517Z,1.30
